Time;durP1;ratioP1;P1;durP2;ratioP2;P2;SDS_P1;SDS_P2;PMS_P1;PMS_P2;Temp;Humidity;BMP_temperature;BMP_pressure;BME280_temperature;BME280_humidity;BME280_pressure;Samples;Min_cycle;Max_cycle;Signal;HPM_P1;HPM_P2
2022/01/02 00:01:02;;;;;;;50.20;10.00;;;12.60;60.60;;;;;;5061966;28;20570;-87
2022/01/02 00:03:52;;;;;;;27.77;9.40;;;12.30;62.20;;;;;;5093514;28;20458;-86
2022/01/02 00:06:44;;;;;;;25.23;9.97;;;12.40;62.10;;;;;;5093609;28;20479;-87
2022/01/02 00:09:32;;;;;;;18.83;8.70;;;12.60;61.70;;;;;;5093989;28;20459;-87
2022/01/02 00:12:21;;;;;;;38.90;10.97;;;12.70;61.20;;;;;;5072443;28;20959;-86
2022/01/02 00:15:08;;;;;;;22.80;9.70;;;12.80;60.50;;;;;;5092026;28;20873;-86
2022/01/02 00:17:54;;;;;;;22.53;10.20;;;12.80;60.50;;;;;;5092024;28;20458;-86
2022/01/02 00:20:48;;;;;;;25.73;9.73;;;12.80;60.30;;;;;;5073546;28;21304;-86
2022/01/02 00:23:47;;;;;;;37.50;11.40;;;12.90;60.00;;;;;;5093060;27;20800;-86
2022/01/02 00:26:39;;;;;;;18.77;10.10;;;12.60;60.20;;;;;;5071223;28;20470;-84
2022/01/02 00:29:24;;;;;;;16.67;10.10;;;12.60;60.50;;;;;;5073960;28;20479;-87
2022/01/02 00:32:12;;;;;;;21.63;9.70;;;12.70;60.40;;;;;;5086092;28;20548;-87
2022/01/02 00:34:59;;;;;;;17.50;11.93;;;12.70;60.00;;;;;;5078394;28;20959;-87
2022/01/02 00:37:46;;;;;;;14.83;11.30;;;12.80;60.00;;;;;;5066477;28;20939;-86
2022/01/02 00:40:35;;;;;;;18.13;7.80;;;12.70;59.50;;;;;;5093946;28;20977;-88
2022/01/02 00:43:36;;;;;;;12.70;8.40;;;12.70;59.10;;;;;;5082786;28;20524;-85
2022/01/02 00:46:22;;;;;;;17.73;7.10;;;12.60;59.30;;;;;;5060811;28;21116;-86
2022/01/02 00:49:10;;;;;;;9.03;5.40;;;12.60;59.40;;;;;;5090166;28;21262;-87
2022/01/02 00:52:03;;;;;;;7.73;4.80;;;12.60;58.80;;;;;;5069441;28;20446;-86
2022/01/02 00:54:53;;;;;;;25.40;6.83;;;12.60;59.30;;;;;;5070925;28;20474;-87
2022/01/02 00:57:41;;;;;;;8.40;6.13;;;12.40;59.40;;;;;;5053475;28;20453;-86
2022/01/02 01:00:28;;;;;;;6.50;5.43;;;12.50;59.30;;;;;;5076269;28;20455;-87
2022/01/02 01:03:21;;;;;;;10.53;4.90;;;12.60;58.90;;;;;;5091502;28;20965;-87
2022/01/02 01:06:10;;;;;;;8.77;5.30;;;12.60;58.80;;;;;;5092077;28;20479;-87
2022/01/02 01:08:57;;;;;;;16.97;5.90;;;12.50;58.90;;;;;;5079232;28;20927;-86
2022/01/02 01:11:45;;;;;;;14.50;5.03;;;12.50;58.90;;;;;;5095487;28;20893;-85
2022/01/02 01:14:31;;;;;;;6.00;5.23;;;12.40;58.50;;;;;;5095620;27;21212;-85
2022/01/02 01:17:17;;;;;;;9.43;5.77;;;12.30;58.60;;;;;;5095375;28;20485;-87
2022/01/02 01:20:04;;;;;;;24.67;6.07;;;12.30;58.40;;;;;;5086643;28;20555;-86
2022/01/02 01:22:50;;;;;;;10.00;5.97;;;12.20;58.50;;;;;;5086100;28;20516;-86
2022/01/02 01:25:39;;;;;;;14.87;6.03;;;11.90;59.60;;;;;;5061583;28;20485;-85
2022/01/02 01:28:26;;;;;;;12.30;5.60;;;12.00;59.90;;;;;;5064589;28;20462;-86
2022/01/02 01:31:11;;;;;;;41.00;8.30;;;12.00;59.80;;;;;;5076616;28;20454;-86
2022/01/02 01:33:57;;;;;;;20.87;9.47;;;12.20;59.90;;;;;;5081097;28;20452;-86
2022/01/02 01:36:43;;;;;;;33.47;11.07;;;11.70;59.70;;;;;;5092701;28;20845;-85
2022/01/02 01:39:28;;;;;;;25.93;8.77;;;11.50;60.90;;;;;;5098922;27;20463;-87
2022/01/02 01:42:14;;;;;;;62.27;8.60;;;11.60;61.10;;;;;;5080920;28;20467;-86
2022/01/02 01:48:06;;;;;;;18.57;7.60;;;11.50;61.10;;;;;;5092896;28;20953;-87
2022/01/02 01:50:55;;;;;;;14.83;6.67;;;11.60;61.40;;;;;;5061683;28;20934;-87
2022/01/02 01:53:42;;;;;;;11.50;6.40;;;11.80;61.60;;;;;;5095527;28;20553;-86
2022/01/02 01:56:28;;;;;;;42.33;9.90;;;11.90;61.00;;;;;;5086298;28;20474;-86
2022/01/02 01:59:15;;;;;;;13.07;6.10;;;11.90;61.00;;;;;;5088186;28;20950;-86
2022/01/02 02:02:03;;;;;;;42.27;7.00;;;12.00;60.60;;;;;;5070224;28;21117;-86
2022/01/02 02:04:49;;;;;;;30.57;7.20;;;12.10;60.10;;;;;;5067351;28;20473;-86
2022/01/02 02:07:41;;;;;;;79.47;10.07;;;12.00;60.40;;;;;;5073548;28;20991;-86
2022/01/02 02:10:34;;;;;;;10.47;5.93;;;12.00;59.60;;;;;;5079065;28;20459;-86
2022/01/02 02:13:23;;;;;;;12.17;6.50;;;11.80;60.60;;;;;;5066371;28;20455;-86
2022/01/02 02:16:10;;;;;;;21.73;6.20;;;11.80;61.30;;;;;;5079910;28;20477;-87
2022/01/02 02:18:56;;;;;;;16.50;5.83;;;11.60;61.30;;;;;;5084446;28;20499;-85
2022/01/02 02:21:44;;;;;;;23.93;7.40;;;11.50;61.70;;;;;;5078684;28;20499;-85
2022/01/02 02:24:29;;;;;;;70.97;8.17;;;11.20;62.20;;;;;;5052344;28;20455;-87
2022/01/02 02:27:15;;;;;;;121.20;11.30;;;10.80;63.00;;;;;;5075323;28;20953;-86
2022/01/02 02:30:01;;;;;;;52.87;8.00;;;10.90;63.30;;;;;;5093727;27;20465;-88
2022/01/02 02:32:48;;;;;;;44.23;8.90;;;11.10;62.10;;;;;;5085286;28;20456;-86
2022/01/02 02:35:35;;;;;;;23.73;7.20;;;11.10;62.70;;;;;;5078753;27;20474;-87
2022/01/02 02:38:22;;;;;;;65.47;9.53;;;11.30;62.10;;;;;;5092086;28;20831;-86
2022/01/02 02:41:13;;;;;;;20.37;7.20;;;11.50;61.20;;;;;;5065030;28;20459;-86
2022/01/02 02:44:05;;;;;;;24.10;6.90;;;11.60;60.40;;;;;;5064730;28;21054;-86
2022/01/02 02:49:53;;;;;;;30.13;7.50;;;11.80;60.00;;;;;;5091415;28;20478;-84
2022/01/02 02:52:43;;;;;;;23.83;6.40;;;11.80;59.80;;;;;;5079781;28;20455;-84
2022/01/02 02:55:32;;;;;;;20.33;7.13;;;11.90;59.40;;;;;;5068287;28;20520;-83
2022/01/02 02:58:39;;;;;;;13.83;4.83;;;11.90;59.90;;;;;;5084416;28;20463;-83
2022/01/02 03:01:28;;;;;;;10.33;5.33;;;11.80;59.80;;;;;;5068105;28;20474;-84
2022/01/02 03:04:14;;;;;;;8.20;4.27;;;11.90;59.60;;;;;;5080224;28;21503;-84
2022/01/02 03:07:00;;;;;;;33.33;6.13;;;11.90;59.20;;;;;;5057296;28;21075;-83
2022/01/02 03:09:49;;;;;;;48.90;7.23;;;11.80;59.30;;;;;;5066627;28;20533;-84
2022/01/02 03:12:38;;;;;;;41.03;8.60;;;11.80;58.90;;;;;;5094288;28;20484;-84
2022/01/02 03:15:24;;;;;;;23.17;7.10;;;11.60;59.00;;;;;;5090263;28;20488;-85
2022/01/02 03:18:09;;;;;;;21.63;5.23;;;11.60;59.20;;;;;;5067002;28;20452;-84
2022/01/02 03:20:55;;;;;;;12.83;6.23;;;11.60;58.90;;;;;;5080640;28;20504;-84
2022/01/02 03:23:41;;;;;;;50.40;7.63;;;11.70;59.10;;;;;;5075225;28;20462;-83
2022/01/02 03:26:27;;;;;;;18.43;5.50;;;11.60;58.80;;;;;;5069777;28;20505;-84
2022/01/02 03:29:14;;;;;;;4.87;3.80;;;11.60;59.30;;;;;;5079233;28;20447;-85
2022/01/02 03:31:59;;;;;;;5.90;4.50;;;11.50;57.70;;;;;;5091335;28;20609;-85
2022/01/02 03:34:45;;;;;;;5.67;3.57;;;11.20;56.60;;;;;;5089955;28;20459;-84
2022/01/02 03:37:33;;;;;;;6.77;4.80;;;9.80;59.10;;;;;;5065079;28;20481;-85
2022/01/02 03:40:19;;;;;;;3.80;3.50;;;9.60;61.40;;;;;;5063538;28;20538;-85
2022/01/02 03:43:06;;;;;;;4.57;4.17;;;9.90;61.40;;;;;;5074320;28;20468;-84
2022/01/02 03:45:53;;;;;;;4.73;4.00;;;10.10;59.60;;;;;;5065270;28;20483;-85
2022/01/02 03:48:38;;;;;;;7.97;4.13;;;10.20;58.80;;;;;;5067377;28;20467;-85
2022/01/02 03:51:25;;;;;;;6.57;4.10;;;10.20;58.60;;;;;;5077784;28;20477;-86
2022/01/02 03:54:11;;;;;;;6.43;5.13;;;10.30;59.50;;;;;;5076669;28;20471;-85
2022/01/02 03:56:57;;;;;;;8.00;4.13;;;10.50;58.90;;;;;;5080360;28;21252;-84
2022/01/02 03:59:42;;;;;;;11.90;4.87;;;10.70;58.50;;;;;;5092024;27;20916;-84
2022/01/02 04:02:30;;;;;;;10.03;4.27;;;10.70;58.80;;;;;;5072884;27;20493;-85
2022/01/02 04:05:17;;;;;;;6.80;4.83;;;10.60;59.70;;;;;;5074659;28;20451;-85
2022/01/02 04:08:05;;;;;;;54.87;7.17;;;10.80;59.70;;;;;;5073787;28;20599;-86
2022/01/02 04:10:51;;;;;;;42.73;5.93;;;10.80;59.80;;;;;;5069203;28;21295;-85
2022/01/02 04:13:37;;;;;;;23.20;6.10;;;10.90;59.50;;;;;;5094039;27;20470;-84
2022/01/02 04:16:22;;;;;;;17.53;5.27;;;10.90;59.10;;;;;;5092330;28;20563;-84
2022/01/02 04:19:09;;;;;;;7.70;4.33;;;11.00;59.30;;;;;;5063458;28;20825;-84
2022/01/02 04:21:55;;;;;;;42.63;6.53;;;11.10;59.00;;;;;;5059244;28;22179;-84
2022/01/02 04:24:40;;;;;;;17.00;5.17;;;11.00;59.40;;;;;;5059142;28;20482;-85
2022/01/02 04:27:26;;;;;;;17.97;4.53;;;11.00;59.70;;;;;;5058997;28;20502;-86
2022/01/02 04:30:13;;;;;;;15.43;5.03;;;11.00;59.60;;;;;;5076132;28;20458;-86
2022/01/02 04:33:00;;;;;;;49.30;6.97;;;10.80;59.80;;;;;;5077020;28;20471;-85
2022/01/02 04:35:48;;;;;;;48.17;7.30;;;10.50;60.50;;;;;;5078151;28;20477;-86
2022/01/02 04:38:34;;;;;;;29.00;5.63;;;10.50;60.20;;;;;;5094470;28;20463;-85
2022/01/02 04:41:20;;;;;;;14.60;5.80;;;10.30;61.80;;;;;;5083994;28;20466;-84
2022/01/02 04:44:05;;;;;;;20.90;6.80;;;10.60;61.50;;;;;;5073302;28;20458;-85
2022/01/02 04:46:51;;;;;;;17.50;4.80;;;10.70;61.10;;;;;;5072329;28;21098;-85
2022/01/02 04:49:37;;;;;;;17.70;6.40;;;10.90;60.50;;;;;;5097368;27;20547;-85
2022/01/02 04:52:25;;;;;;;14.13;6.20;;;10.90;60.40;;;;;;5098829;27;20458;-85
2022/01/02 04:55:11;;;;;;;46.00;5.13;;;11.10;60.10;;;;;;5097892;28;20507;-85
2022/01/02 04:57:56;;;;;;;8.30;5.70;;;11.20;59.30;;;;;;5092326;27;20495;-85
2022/01/02 05:00:42;;;;;;;18.70;4.90;;;11.20;59.40;;;;;;5082606;28;20466;-86
2022/01/02 05:03:28;;;;;;;20.10;7.03;;;11.20;59.40;;;;;;5082709;28;20467;-84
2022/01/02 05:06:14;;;;;;;7.97;5.93;;;11.20;59.40;;;;;;5087267;28;20512;-85
2022/01/02 05:09:01;;;;;;;10.93;4.90;;;11.20;59.30;;;;;;5076220;28;20456;-84
2022/01/02 05:11:47;;;;;;;13.83;6.00;;;11.20;59.60;;;;;;5074474;28;21346;-85
2022/01/02 05:14:33;;;;;;;14.43;5.13;;;11.10;59.60;;;;;;5079010;28;20451;-84
2022/01/02 05:17:19;;;;;;;11.80;7.90;;;11.00;60.00;;;;;;5083646;28;21007;-85
2022/01/02 05:20:06;;;;;;;12.90;4.73;;;11.10;59.30;;;;;;5084095;28;20458;-85
2022/01/02 05:22:52;;;;;;;9.60;4.70;;;11.00;58.60;;;;;;5085442;27;20471;-85
2022/01/02 05:25:39;;;;;;;6.03;4.97;;;11.00;58.30;;;;;;5086739;28;20565;-84
2022/01/02 05:28:26;;;;;;;5.63;4.93;;;10.90;58.40;;;;;;5070879;28;20458;-84
2022/01/02 05:31:12;;;;;;;23.83;5.13;;;10.90;58.30;;;;;;5099330;27;20457;-84
2022/01/02 05:33:58;;;;;;;6.73;4.60;;;10.80;58.20;;;;;;5099267;27;20451;-86
2022/01/02 05:36:48;;;;;;;7.80;4.50;;;10.90;58.60;;;;;;5083782;28;20539;-82
2022/01/02 05:39:36;;;;;;;5.63;3.90;;;10.80;57.90;;;;;;5088796;28;20443;-85
2022/01/02 05:42:23;;;;;;;4.63;3.97;;;10.80;57.20;;;;;;5083893;27;20539;-84
2022/01/02 05:45:09;;;;;;;3.80;3.40;;;10.60;57.70;;;;;;5099401;28;20446;-85
2022/01/02 05:47:55;;;;;;;3.27;2.97;;;10.40;57.80;;;;;;5081250;28;20493;-85
2022/01/02 05:50:41;;;;;;;5.00;3.50;;;10.60;57.90;;;;;;5087671;28;20463;-86
2022/01/02 05:53:26;;;;;;;4.60;3.57;;;10.60;57.80;;;;;;5061800;28;20590;-84
2022/01/02 05:56:12;;;;;;;5.17;3.50;;;10.70;57.30;;;;;;5074451;28;20471;-84
2022/01/02 05:58:59;;;;;;;5.17;3.93;;;10.60;57.10;;;;;;5096833;28;20455;-84
2022/01/02 06:01:45;;;;;;;4.40;3.40;;;10.60;57.60;;;;;;5076748;28;20450;-85
2022/01/02 06:04:31;;;;;;;4.30;3.90;;;10.60;57.80;;;;;;5076187;28;20875;-85
2022/01/02 06:07:17;;;;;;;4.40;4.00;;;10.70;57.40;;;;;;5082341;28;20490;-86
2022/01/02 06:10:04;;;;;;;6.53;3.80;;;10.70;57.90;;;;;;5083812;28;20461;-84
2022/01/02 06:12:51;;;;;;;6.40;3.63;;;10.80;57.90;;;;;;5082053;28;20454;-84
2022/01/02 06:15:38;;;;;;;9.73;4.70;;;10.90;57.70;;;;;;5080000;28;20481;-83
2022/01/02 06:18:24;;;;;;;9.03;5.33;;;10.90;57.70;;;;;;5083097;28;20447;-86
2022/01/02 06:21:09;;;;;;;7.40;4.87;;;10.90;57.90;;;;;;5085607;28;20469;-84
2022/01/02 06:23:55;;;;;;;15.20;6.10;;;10.80;58.30;;;;;;5066035;28;20480;-84
2022/01/02 06:26:41;;;;;;;8.13;4.70;;;10.90;58.30;;;;;;5075217;28;21148;-84
2022/01/02 06:29:27;;;;;;;9.60;6.43;;;11.00;58.40;;;;;;5082843;28;20489;-85
2022/01/02 06:32:15;;;;;;;9.33;6.00;;;10.90;58.70;;;;;;5081920;28;20495;-85
2022/01/02 06:35:01;;;;;;;9.83;5.23;;;10.90;58.80;;;;;;5087349;28;20452;-84
2022/01/02 06:37:46;;;;;;;15.23;6.33;;;11.00;58.90;;;;;;5091153;28;20541;-86
2022/01/02 06:40:33;;;;;;;10.27;5.50;;;11.10;58.70;;;;;;5095289;28;20534;-84
2022/01/02 06:43:19;;;;;;;15.13;7.17;;;11.00;58.80;;;;;;5086074;28;20603;-85
2022/01/02 06:46:05;;;;;;;31.73;6.77;;;11.00;59.00;;;;;;5080496;28;20835;-85
2022/01/02 06:48:52;;;;;;;29.70;8.40;;;11.00;58.90;;;;;;5080163;28;20471;-85
2022/01/02 06:51:38;;;;;;;21.07;7.20;;;11.00;58.70;;;;;;5068343;28;20940;-84
2022/01/02 06:54:23;;;;;;;20.43;6.57;;;11.00;58.40;;;;;;5077411;28;20483;-85
2022/01/02 06:57:09;;;;;;;23.67;6.63;;;10.80;59.00;;;;;;5063715;28;20478;-86
2022/01/02 06:59:55;;;;;;;9.00;5.63;;;10.80;59.60;;;;;;5086142;28;20649;-85
2022/01/02 07:02:41;;;;;;;7.57;4.83;;;10.90;59.60;;;;;;5079518;28;21032;-84
2022/01/02 07:05:28;;;;;;;16.37;6.63;;;10.90;59.40;;;;;;5063639;28;20477;-85
2022/01/02 07:08:13;;;;;;;7.30;4.83;;;10.90;59.20;;;;;;5090261;28;20470;-84
2022/01/02 07:11:00;;;;;;;5.27;4.77;;;11.00;58.90;;;;;;5061424;28;20459;-85
2022/01/02 07:13:45;;;;;;;8.40;5.13;;;11.10;58.50;;;;;;5074853;28;20435;-85
2022/01/02 07:16:31;;;;;;;11.77;9.40;;;11.00;57.90;;;;;;5073855;28;20574;-84
2022/01/02 07:19:16;;;;;;;8.77;7.63;;;10.90;57.80;;;;;;5094964;28;20453;-86
2022/01/02 07:22:05;;;;;;;5.23;4.20;;;10.90;57.70;;;;;;5077296;28;20451;-85
2022/01/02 07:24:51;;;;;;;4.33;3.77;;;10.90;57.70;;;;;;5090658;27;20820;-85
2022/01/02 07:27:37;;;;;;;7.40;4.40;;;10.90;57.60;;;;;;5076908;28;21077;-85
2022/01/02 07:30:23;;;;;;;7.13;4.43;;;10.90;57.60;;;;;;5083468;28;20443;-85
2022/01/02 07:33:08;;;;;;;6.07;5.17;;;11.00;57.60;;;;;;5092244;27;20540;-87
2022/01/02 07:35:54;;;;;;;11.10;8.10;;;11.00;57.60;;;;;;5082811;28;20644;-86
2022/01/02 07:38:40;;;;;;;9.10;7.17;;;10.90;57.70;;;;;;5076394;28;20452;-85
2022/01/02 07:41:26;;;;;;;6.70;5.13;;;10.90;57.60;;;;;;5074947;28;20503;-86
2022/01/02 07:44:12;;;;;;;8.13;4.73;;;10.90;57.50;;;;;;5094410;28;20501;-87
2022/01/02 07:46:57;;;;;;;6.43;4.97;;;10.30;58.10;;;;;;5091367;27;20478;-84
2022/01/02 07:49:43;;;;;;;11.60;8.03;;;10.40;58.80;;;;;;5082121;28;20494;-86
2022/01/02 07:52:28;;;;;;;8.00;5.90;;;10.50;59.10;;;;;;5095128;28;20814;-86
2022/01/02 07:55:15;;;;;;;7.23;5.40;;;10.40;59.30;;;;;;5094009;28;20467;-87
2022/01/02 07:58:01;;;;;;;19.87;6.10;;;10.40;59.10;;;;;;5094883;27;20455;-87
2022/01/02 08:00:48;;;;;;;10.00;6.23;;;10.60;59.20;;;;;;5092474;28;20475;-87
2022/01/02 08:03:33;;;;;;;13.20;6.93;;;10.70;59.00;;;;;;5092386;28;20847;-87
2022/01/02 08:06:19;;;;;;;14.63;8.10;;;10.80;58.80;;;;;;5069019;28;20562;-90
2022/01/02 08:09:06;;;;;;;7.03;6.27;;;10.90;58.60;;;;;;5092052;27;20996;-84
2022/01/02 08:11:52;;;;;;;8.47;7.10;;;10.90;58.50;;;;;;5079133;28;20463;-88
2022/01/02 08:14:38;;;;;;;5.63;4.90;;;10.90;58.20;;;;;;5089246;28;21198;-87
2022/01/02 08:17:23;;;;;;;82.50;7.90;;;10.90;58.40;;;;;;5089594;27;20549;-88
2022/01/02 08:20:10;;;;;;;9.30;6.33;;;10.40;58.90;;;;;;5077937;28;21024;-89
2022/01/02 08:22:56;;;;;;;34.73;11.00;;;10.20;60.00;;;;;;5091951;28;20467;-88
2022/01/02 08:25:42;;;;;;;28.00;15.57;;;10.10;60.10;;;;;;5092572;28;20837;-85
2022/01/02 08:28:29;;;;;;;23.63;14.77;;;10.20;60.90;;;;;;5074016;28;21018;-87
2022/01/02 08:31:14;;;;;;;32.63;11.90;;;10.50;60.50;;;;;;5061684;28;20608;-87
2022/01/02 08:34:00;;;;;;;28.97;18.50;;;10.70;59.60;;;;;;5075740;28;20442;-86
2022/01/02 08:36:45;;;;;;;198.57;68.80;;;10.70;59.40;;;;;;5076661;28;20478;-86
2022/01/02 08:39:31;;;;;;;53.70;31.03;;;10.80;59.40;;;;;;5074169;28;20444;-87
2022/01/02 08:42:16;;;;;;;13.03;9.20;;;10.80;59.00;;;;;;5074963;28;20545;-87
2022/01/02 08:45:04;;;;;;;18.47;7.30;;;10.80;59.10;;;;;;5082618;28;20463;-87
2022/01/02 08:47:50;;;;;;;15.30;7.70;;;10.80;59.40;;;;;;5062340;28;20800;-87
2022/01/02 08:50:35;;;;;;;14.23;7.20;;;10.60;59.90;;;;;;5071727;28;20451;-86
2022/01/02 08:53:21;;;;;;;16.20;8.47;;;10.50;60.80;;;;;;5056937;28;21112;-86
2022/01/02 08:56:07;;;;;;;9.10;5.90;;;10.70;60.10;;;;;;5069991;28;20471;-87
2022/01/02 08:58:52;;;;;;;9.50;6.90;;;10.40;60.90;;;;;;5064168;28;20448;-86
2022/01/02 09:01:39;;;;;;;10.70;6.80;;;10.50;60.60;;;;;;5091288;28;20497;-87
2022/01/02 09:04:25;;;;;;;13.33;9.30;;;10.80;60.20;;;;;;5095444;28;20496;-87
2022/01/02 09:07:10;;;;;;;11.63;7.90;;;10.70;59.30;;;;;;5072724;28;21016;-86
2022/01/02 09:09:56;;;;;;;16.00;11.53;;;10.70;59.30;;;;;;5084073;27;20485;-87
2022/01/02 09:12:42;;;;;;;10.63;7.00;;;10.70;59.60;;;;;;5089663;28;21330;-86
2022/01/02 09:15:27;;;;;;;12.90;9.13;;;10.90;59.80;;;;;;5091588;28;20474;-88
2022/01/02 09:18:14;;;;;;;10.77;7.57;;;10.90;59.80;;;;;;5077038;28;20961;-85
2022/01/02 09:20:59;;;;;;;12.63;7.97;;;10.90;59.50;;;;;;5074199;28;20458;-86
2022/01/02 09:23:45;;;;;;;13.50;8.23;;;10.90;59.70;;;;;;5070177;28;20474;-87
2022/01/02 09:26:31;;;;;;;10.90;7.70;;;10.90;59.80;;;;;;5061629;28;20464;-86
2022/01/02 09:29:16;;;;;;;14.03;9.27;;;10.80;60.00;;;;;;5075790;28;20463;-86
2022/01/02 09:32:03;;;;;;;25.27;13.03;;;10.90;60.10;;;;;;5068210;28;20986;-87
2022/01/02 09:34:50;;;;;;;17.63;10.77;;;11.20;59.70;;;;;;5086740;28;20450;-87
2022/01/02 09:37:35;;;;;;;19.80;12.60;;;11.30;59.30;;;;;;5080637;28;20470;-86
2022/01/02 09:40:21;;;;;;;13.40;9.80;;;11.30;59.00;;;;;;5079757;28;20561;-86
2022/01/02 09:43:07;;;;;;;15.20;9.50;;;11.30;59.30;;;;;;5090531;28;20459;-85
2022/01/02 09:45:52;;;;;;;14.63;8.87;;;11.40;59.60;;;;;;5076106;28;20840;-86
2022/01/02 09:48:39;;;;;;;18.10;7.67;;;11.00;60.00;;;;;;5080565;28;20459;-86
2022/01/02 09:51:27;;;;;;;14.20;10.40;;;10.90;60.40;;;;;;5081475;28;20457;-86
2022/01/02 09:54:12;;;;;;;16.77;9.17;;;10.90;61.00;;;;;;5097366;28;20826;-86
2022/01/02 09:56:39;;;;;;;13.23;7.90;;;10.90;61.50;;;;;;5097651;28;20489;-87
2022/01/02 09:59:06;;;;;;;11.83;7.87;;;10.90;60.60;;;;;;5078798;28;20517;-86
2022/01/02 10:01:33;;;;;;;11.80;7.67;;;10.80;61.00;;;;;;5084751;28;20460;-85
2022/01/02 10:04:00;;;;;;;11.43;6.90;;;10.90;60.90;;;;;;5077909;28;20906;-85
2022/01/02 10:06:40;;;;;;;20.97;9.10;;;10.90;60.80;;;;;;5095141;28;20463;-88
2022/01/02 10:09:14;;;;;;;12.60;8.03;;;11.00;61.00;;;;;;5068100;28;20457;-86
2022/01/02 10:11:41;;;;;;;9.07;6.57;;;11.00;60.60;;;;;;5095408;28;20460;-86
2022/01/02 10:14:11;;;;;;;12.00;6.40;;;11.00;60.80;;;;;;5096511;28;20454;-86
2022/01/02 10:16:39;;;;;;;10.90;7.17;;;11.10;61.20;;;;;;5083298;28;20551;-86
2022/01/02 10:19:21;;;;;;;15.17;8.03;;;11.20;60.10;;;;;;5061226;28;20550;-87
2022/01/02 10:21:58;;;;;;;10.83;6.90;;;11.20;60.20;;;;;;5077665;28;20447;-87
2022/01/02 10:24:28;;;;;;;8.60;5.83;;;11.30;59.70;;;;;;5096186;27;20470;-86
2022/01/02 10:27:13;;;;;;;9.93;6.37;;;11.10;60.10;;;;;;5076487;28;20466;-86
2022/01/02 10:29:46;;;;;;;5.70;4.57;;;11.00;60.30;;;;;;5078889;28;20471;-86
2022/01/02 10:32:30;;;;;;;9.77;6.23;;;10.90;60.80;;;;;;5078718;28;20443;-84
2022/01/02 10:35:13;;;;;;;9.03;6.60;;;11.10;60.30;;;;;;5080748;28;20452;-87
2022/01/02 10:37:43;;;;;;;13.63;8.73;;;11.20;60.20;;;;;;5091539;28;20489;-86
2022/01/02 10:40:29;;;;;;;11.30;7.50;;;11.30;59.80;;;;;;5077724;28;20480;-86
2022/01/02 10:42:56;;;;;;;12.00;8.43;;;11.20;60.10;;;;;;5049568;28;20452;-85
2022/01/02 10:45:35;;;;;;;11.13;6.90;;;11.20;60.30;;;;;;5092102;27;20464;-86
2022/01/02 10:48:02;;;;;;;11.90;8.07;;;11.30;60.30;;;;;;5076615;28;20457;-86
2022/01/02 10:50:29;;;;;;;18.33;11.13;;;11.40;59.90;;;;;;5058647;27;20466;-86
2022/01/02 10:52:58;;;;;;;13.73;9.40;;;11.40;60.10;;;;;;5077311;28;20467;-85
2022/01/02 10:55:27;;;;;;;11.40;7.00;;;11.20;60.20;;;;;;5095259;28;20450;-86
2022/01/02 10:57:56;;;;;;;10.57;8.70;;;11.20;60.10;;;;;;5074985;28;20443;-88
2022/01/02 11:00:25;;;;;;;13.07;8.40;;;11.30;60.40;;;;;;5092969;28;20459;-85
2022/01/02 11:02:52;;;;;;;16.20;9.53;;;11.40;60.00;;;;;;5075990;27;20470;-85
2022/01/02 11:05:21;;;;;;;13.10;9.00;;;11.60;59.60;;;;;;5060276;28;20472;-86
2022/01/02 11:07:49;;;;;;;15.37;9.93;;;11.70;59.60;;;;;;5074121;28;20493;-85
2022/01/02 11:10:19;;;;;;;14.70;9.00;;;11.80;59.80;;;;;;5078867;28;20465;-86
2022/01/02 11:12:48;;;;;;;15.90;10.57;;;11.80;59.40;;;;;;5067753;28;20451;-87
2022/01/02 11:15:18;;;;;;;17.43;11.40;;;11.60;59.60;;;;;;5060636;28;20443;-87
2022/01/02 11:17:45;;;;;;;12.13;9.13;;;11.60;60.00;;;;;;5078304;27;20578;-86
2022/01/02 11:20:14;;;;;;;16.40;10.83;;;11.20;60.20;;;;;;5078334;28;20478;-88
2022/01/02 11:22:45;;;;;;;10.80;9.10;;;11.10;61.20;;;;;;5074227;28;20475;-86
2022/01/02 11:25:19;;;;;;;20.50;11.80;;;11.10;61.20;;;;;;5095332;28;21857;-85
2022/01/02 11:27:53;;;;;;;14.03;10.47;;;11.30;60.50;;;;;;5094855;27;20850;-84
2022/01/02 11:30:40;;;;;;;18.63;12.13;;;11.40;60.30;;;;;;5076832;28;21128;-87
2022/01/02 11:33:10;;;;;;;18.10;11.17;;;11.60;60.40;;;;;;5096252;27;20440;-86
2022/01/02 11:35:39;;;;;;;20.53;13.90;;;11.40;60.70;;;;;;5094186;28;20459;-86
2022/01/02 11:38:07;;;;;;;18.00;11.63;;;11.50;61.00;;;;;;5076610;28;20982;-86
2022/01/02 11:40:47;;;;;;;15.87;11.23;;;11.50;60.60;;;;;;5077010;28;20463;-85
2022/01/02 11:43:51;;;;;;;21.20;13.17;;;11.70;60.30;;;;;;5067555;28;20516;-86
2022/01/02 11:46:20;;;;;;;22.73;14.93;;;11.80;59.90;;;;;;5067243;28;20501;-87
2022/01/02 11:49:14;;;;;;;26.03;14.93;;;11.90;59.80;;;;;;5075335;28;20443;-86
2022/01/02 11:51:56;;;;;;;16.50;10.60;;;11.60;60.50;;;;;;5071392;28;20446;-87
2022/01/02 11:54:48;;;;;;;13.57;9.50;;;11.50;60.80;;;;;;5067383;28;20456;-86
2022/01/02 11:57:51;;;;;;;12.60;8.47;;;11.30;61.50;;;;;;5089703;28;20478;-86
2022/01/02 12:00:46;;;;;;;12.13;8.13;;;11.60;60.90;;;;;;5075420;28;20505;-87
2022/01/02 12:03:47;;;;;;;10.87;8.60;;;11.70;60.60;;;;;;5074507;28;20546;-87
2022/01/02 12:06:15;;;;;;;12.20;7.60;;;11.80;60.50;;;;;;5083141;28;20877;-87
2022/01/02 12:08:42;;;;;;;8.03;6.60;;;11.70;60.50;;;;;;5047726;28;20454;-88
2022/01/02 12:11:37;;;;;;;9.10;6.70;;;11.60;61.10;;;;;;5076657;28;20436;-86
2022/01/02 12:14:04;;;;;;;22.03;17.20;;;11.60;61.10;;;;;;5092505;28;20448;-86
2022/01/02 12:16:37;;;;;;;9.93;6.33;;;11.70;60.90;;;;;;5091168;28;20486;-86
2022/01/02 12:19:05;;;;;;;10.63;6.93;;;11.60;61.00;;;;;;5090425;28;20463;-85
2022/01/02 12:21:33;;;;;;;12.53;8.83;;;11.40;61.80;;;;;;5093219;27;20459;-87
2022/01/02 12:24:02;;;;;;;12.40;7.50;;;11.50;61.90;;;;;;5073098;28;20566;-87
2022/01/02 12:26:32;;;;;;;10.50;7.87;;;11.50;61.50;;;;;;5061424;28;20458;-87
2022/01/02 12:29:02;;;;;;;10.17;7.43;;;11.40;62.60;;;;;;5062512;28;20450;-86
2022/01/02 12:31:32;;;;;;;10.70;7.70;;;11.60;61.80;;;;;;5076301;28;20446;-87
2022/01/02 12:34:11;;;;;;;10.87;7.67;;;11.80;61.30;;;;;;5092111;28;20448;-87
2022/01/02 12:36:41;;;;;;;11.90;6.80;;;11.80;61.40;;;;;;5089435;28;20514;-87
2022/01/02 12:39:09;;;;;;;15.33;7.93;;;11.70;63.90;;;;;;5091808;28;20531;-86
2022/01/02 12:41:37;;;;;;;12.93;9.00;;;11.90;62.50;;;;;;5093522;28;20862;-87
2022/01/02 12:44:06;;;;;;;20.87;13.67;;;11.90;61.60;;;;;;5074794;28;20479;-86
2022/01/02 12:46:37;;;;;;;14.63;8.87;;;11.80;61.60;;;;;;5075719;28;20521;-86
2022/01/02 12:49:08;;;;;;;16.10;9.60;;;11.60;62.10;;;;;;5074059;28;20459;-87
2022/01/02 12:51:36;;;;;;;16.17;10.43;;;11.80;62.20;;;;;;5072508;28;21240;-86
2022/01/02 12:54:05;;;;;;;16.97;10.47;;;12.00;61.60;;;;;;5092104;28;20458;-86
2022/01/02 12:56:38;;;;;;;15.10;10.90;;;12.10;61.30;;;;;;5095434;28;20472;-87
2022/01/02 12:59:20;;;;;;;16.70;9.30;;;12.10;61.20;;;;;;5076527;28;20464;-87
2022/01/02 13:01:49;;;;;;;13.33;10.00;;;12.10;61.20;;;;;;5077228;28;20454;-87
2022/01/02 13:04:18;;;;;;;11.53;9.40;;;12.10;61.30;;;;;;5092705;28;20490;-88
2022/01/02 13:06:46;;;;;;;15.73;10.00;;;12.10;61.50;;;;;;5076358;28;20830;-87
2022/01/02 13:09:13;;;;;;;12.40;8.80;;;12.10;61.20;;;;;;5098723;27;20491;-87
2022/01/02 13:11:40;;;;;;;21.33;12.50;;;12.10;61.20;;;;;;5087217;28;20446;-87
2022/01/02 13:14:07;;;;;;;16.00;10.50;;;12.20;61.00;;;;;;5097038;28;21034;-85
2022/01/02 13:16:35;;;;;;;11.17;8.10;;;12.20;61.20;;;;;;5097956;27;20825;-87
2022/01/02 13:19:02;;;;;;;9.20;7.13;;;12.10;61.70;;;;;;5085633;28;20509;-87
2022/01/02 13:21:30;;;;;;;8.77;7.20;;;12.10;61.70;;;;;;5080863;27;20745;-87
2022/01/02 13:24:25;;;;;;;6.10;4.40;;;12.10;61.70;;;;;;5095829;28;20469;-87
2022/01/02 13:26:52;;;;;;;7.53;3.90;;;12.00;61.60;;;;;;5078016;28;20947;-87
2022/01/02 13:29:24;;;;;;;3.57;3.27;;;12.10;60.30;;;;;;5061169;28;20448;-85
2022/01/02 13:31:53;;;;;;;5.27;4.87;;;12.30;59.60;;;;;;5070807;28;20458;-86
2022/01/02 13:34:24;;;;;;;48.07;24.07;;;12.70;59.20;;;;;;5070195;27;20443;-86
2022/01/02 13:36:57;;;;;;;17.70;12.20;;;12.80;59.50;;;;;;5082339;28;20479;-89
2022/01/02 13:39:39;;;;;;;19.93;11.83;;;12.80;59.70;;;;;;5064798;28;20443;-88
2022/01/02 13:42:07;;;;;;;19.47;11.03;;;12.80;59.60;;;;;;5081196;28;20446;-88
2022/01/02 13:44:38;;;;;;;21.63;11.50;;;12.70;60.10;;;;;;5078874;28;20516;-87
2022/01/02 13:47:05;;;;;;;17.97;11.27;;;12.70;60.10;;;;;;5077607;28;20517;-86
2022/01/02 13:49:57;;;;;;;7.30;5.10;;;12.80;60.10;;;;;;5078646;28;20999;-87
2022/01/02 13:52:25;;;;;;;16.23;12.40;;;12.80;59.00;;;;;;5079133;28;20456;-87
2022/01/02 13:55:07;;;;;;;11.67;9.40;;;12.90;59.50;;;;;;5078571;28;21202;-87
2022/01/02 13:57:34;;;;;;;8.20;6.00;;;12.90;59.30;;;;;;5076733;28;20482;-85
2022/01/02 14:00:16;;;;;;;6.17;3.43;;;12.90;58.70;;;;;;5078364;28;20492;-86
2022/01/02 14:02:43;;;;;;;7.87;4.87;;;13.10;57.80;;;;;;5094726;27;20462;-87